sensor_id;sensor_type;location;lat;lon;timestamp;temperature;humidity
20795;DHT22;28087;-33.874;151.240;2023-04-09T00:01:03;23.20;38.40
20795;DHT22;28087;-33.874;151.240;2023-04-09T00:03:38;23.20;38.30
20795;DHT22;28087;-33.874;151.240;2023-04-09T00:06:12;23.40;38.30
20795;DHT22;28087;-33.874;151.240;2023-04-09T00:08:46;23.50;37.70
20795;DHT22;28087;-33.874;151.240;2023-04-09T00:11:22;23.60;37.80
20795;DHT22;28087;-33.874;151.240;2023-04-09T00:13:58;23.80;38.00
20795;DHT22;28087;-33.874;151.240;2023-04-09T00:16:33;24.10;38.40
20795;DHT22;28087;-33.874;151.240;2023-04-09T00:42:15;24.50;37.50
20795;DHT22;28087;-33.874;151.240;2023-04-09T00:44:49;24.60;37.00
20795;DHT22;28087;-33.874;151.240;2023-04-09T00:47:24;24.50;36.70
20795;DHT22;28087;-33.874;151.240;2023-04-09T00:49:59;24.50;37.30
20795;DHT22;28087;-33.874;151.240;2023-04-09T00:52:34;24.60;36.40
20795;DHT22;28087;-33.874;151.240;2023-04-09T00:55:08;24.70;36.60
20795;DHT22;28087;-33.874;151.240;2023-04-09T00:57:45;24.70;36.30
20795;DHT22;28087;-33.874;151.240;2023-04-09T01:00:19;24.70;36.40
20795;DHT22;28087;-33.874;151.240;2023-04-09T01:02:54;24.80;36.60
20795;DHT22;28087;-33.874;151.240;2023-04-09T01:05:30;24.80;35.90
20795;DHT22;28087;-33.874;151.240;2023-04-09T01:08:08;24.90;35.80
20795;DHT22;28087;-33.874;151.240;2023-04-09T01:10:46;24.90;35.20
20795;DHT22;28087;-33.874;151.240;2023-04-09T01:13:25;24.70;36.10
20795;DHT22;28087;-33.874;151.240;2023-04-09T01:16:01;24.60;36.80
20795;DHT22;28087;-33.874;151.240;2023-04-09T01:18:38;24.80;35.80
20795;DHT22;28087;-33.874;151.240;2023-04-09T01:21:12;24.90;35.60
20795;DHT22;28087;-33.874;151.240;2023-04-09T01:23:51;24.80;35.60
20795;DHT22;28087;-33.874;151.240;2023-04-09T01:26:42;24.80;36.00
20795;DHT22;28087;-33.874;151.240;2023-04-09T01:29:21;25.10;35.20
20795;DHT22;28087;-33.874;151.240;2023-04-09T01:31:56;25.20;35.60
20795;DHT22;28087;-33.874;151.240;2023-04-09T01:34:31;25.00;35.40
20795;DHT22;28087;-33.874;151.240;2023-04-09T01:37:06;25.00;36.10
20795;DHT22;28087;-33.874;151.240;2023-04-09T01:39:41;25.20;35.20
20795;DHT22;28087;-33.874;151.240;2023-04-09T01:42:15;25.10;35.90
20795;DHT22;28087;-33.874;151.240;2023-04-09T01:44:53;25.30;35.40
20795;DHT22;28087;-33.874;151.240;2023-04-09T01:47:28;25.40;35.10
20795;DHT22;28087;-33.874;151.240;2023-04-09T01:50:02;25.40;35.60
20795;DHT22;28087;-33.874;151.240;2023-04-09T01:52:37;25.70;34.80
20795;DHT22;28087;-33.874;151.240;2023-04-09T01:55:11;25.70;34.20
20795;DHT22;28087;-33.874;151.240;2023-04-09T01:57:45;25.90;34.10
20795;DHT22;28087;-33.874;151.240;2023-04-09T02:00:26;25.90;34.10
20795;DHT22;28087;-33.874;151.240;2023-04-09T02:03:05;26.00;33.50
20795;DHT22;28087;-33.874;151.240;2023-04-09T02:05:40;25.80;33.30
20795;DHT22;28087;-33.874;151.240;2023-04-09T02:08:18;25.60;33.40
20795;DHT22;28087;-33.874;151.240;2023-04-09T02:10:55;25.50;34.10
20795;DHT22;28087;-33.874;151.240;2023-04-09T02:13:30;25.80;34.30
20795;DHT22;28087;-33.874;151.240;2023-04-09T02:16:08;25.70;33.80
20795;DHT22;28087;-33.874;151.240;2023-04-09T02:18:42;25.80;34.00
20795;DHT22;28087;-33.874;151.240;2023-04-09T02:21:17;26.00;34.00
20795;DHT22;28087;-33.874;151.240;2023-04-09T02:23:51;26.10;33.40
20795;DHT22;28087;-33.874;151.240;2023-04-09T02:26:26;26.20;34.10
20795;DHT22;28087;-33.874;151.240;2023-04-09T02:29:00;26.30;34.00
20795;DHT22;28087;-33.874;151.240;2023-04-09T02:31:37;26.30;33.10
20795;DHT22;28087;-33.874;151.240;2023-04-09T02:34:11;26.50;33.30
20795;DHT22;28087;-33.874;151.240;2023-04-09T02:36:46;26.60;33.60
20795;DHT22;28087;-33.874;151.240;2023-04-09T02:39:20;26.50;32.50
20795;DHT22;28087;-33.874;151.240;2023-04-09T02:41:55;26.30;32.10
20795;DHT22;28087;-33.874;151.240;2023-04-09T02:44:29;26.10;32.20
20795;DHT22;28087;-33.874;151.240;2023-04-09T02:47:06;26.10;32.80
20795;DHT22;28087;-33.874;151.240;2023-04-09T02:49:40;26.10;33.50
20795;DHT22;28087;-33.874;151.240;2023-04-09T02:52:15;26.30;32.20
20795;DHT22;28087;-33.874;151.240;2023-04-09T02:54:50;26.10;32.20
20795;DHT22;28087;-33.874;151.240;2023-04-09T02:57:24;26.00;33.60
20795;DHT22;28087;-33.874;151.240;2023-04-09T02:59:58;26.20;33.00
20795;DHT22;28087;-33.874;151.240;2023-04-09T03:02:36;26.10;33.80
20795;DHT22;28087;-33.874;151.240;2023-04-09T03:05:10;26.20;34.00
20795;DHT22;28087;-33.874;151.240;2023-04-09T03:07:44;26.40;33.70
20795;DHT22;28087;-33.874;151.240;2023-04-09T03:10:19;26.40;33.40
20795;DHT22;28087;-33.874;151.240;2023-04-09T03:12:54;26.50;33.20
20795;DHT22;28087;-33.874;151.240;2023-04-09T03:15:28;26.50;33.20
20795;DHT22;28087;-33.874;151.240;2023-04-09T03:18:05;26.50;32.90
20795;DHT22;28087;-33.874;151.240;2023-04-09T03:20:39;26.20;33.00
20795;DHT22;28087;-33.874;151.240;2023-04-09T03:23:16;26.20;32.70
20795;DHT22;28087;-33.874;151.240;2023-04-09T03:25:59;26.20;32.60
20795;DHT22;28087;-33.874;151.240;2023-04-09T03:28:40;26.20;32.40
20795;DHT22;28087;-33.874;151.240;2023-04-09T03:31:14;26.00;32.50
20795;DHT22;28087;-33.874;151.240;2023-04-09T03:33:51;25.90;33.30
20795;DHT22;28087;-33.874;151.240;2023-04-09T03:36:26;26.00;32.10
20795;DHT22;28087;-33.874;151.240;2023-04-09T03:39:03;26.20;32.70
20795;DHT22;28087;-33.874;151.240;2023-04-09T03:41:43;26.30;31.90
20795;DHT22;28087;-33.874;151.240;2023-04-09T03:44:19;26.10;32.40
20795;DHT22;28087;-33.874;151.240;2023-04-09T03:47:05;26.20;32.20
20795;DHT22;28087;-33.874;151.240;2023-04-09T03:49:42;26.20;32.90
20795;DHT22;28087;-33.874;151.240;2023-04-09T03:52:27;26.20;32.30
20795;DHT22;28087;-33.874;151.240;2023-04-09T03:55:07;26.30;32.90
20795;DHT22;28087;-33.874;151.240;2023-04-09T03:57:41;26.50;32.80
20795;DHT22;28087;-33.874;151.240;2023-04-09T04:00:18;26.30;32.10
20795;DHT22;28087;-33.874;151.240;2023-04-09T04:03:12;26.20;32.90
20795;DHT22;28087;-33.874;151.240;2023-04-09T04:06:07;26.20;32.70
20795;DHT22;28087;-33.874;151.240;2023-04-09T04:08:49;26.20;32.80
20795;DHT22;28087;-33.874;151.240;2023-04-09T04:11:33;26.10;32.00
20795;DHT22;28087;-33.874;151.240;2023-04-09T04:14:07;26.00;31.80
20795;DHT22;28087;-33.874;151.240;2023-04-09T04:16:44;26.10;32.30
20795;DHT22;28087;-33.874;151.240;2023-04-09T04:19:22;26.00;32.40
20795;DHT22;28087;-33.874;151.240;2023-04-09T04:21:58;26.00;32.30
20795;DHT22;28087;-33.874;151.240;2023-04-09T04:24:36;26.10;32.70
20795;DHT22;28087;-33.874;151.240;2023-04-09T04:27:11;26.00;33.10
20795;DHT22;28087;-33.874;151.240;2023-04-09T04:29:45;25.70;33.30
20795;DHT22;28087;-33.874;151.240;2023-04-09T04:32:36;25.50;33.40
20795;DHT22;28087;-33.874;151.240;2023-04-09T04:35:12;25.60;32.80
20795;DHT22;28087;-33.874;151.240;2023-04-09T04:37:51;25.60;32.90
20795;DHT22;28087;-33.874;151.240;2023-04-09T04:40:27;25.40;33.40
20795;DHT22;28087;-33.874;151.240;2023-04-09T04:43:02;25.40;33.10
20795;DHT22;28087;-33.874;151.240;2023-04-09T04:45:36;25.10;32.90
20795;DHT22;28087;-33.874;151.240;2023-04-09T04:48:13;25.10;33.20
20795;DHT22;28087;-33.874;151.240;2023-04-09T04:50:53;25.20;33.60
20795;DHT22;28087;-33.874;151.240;2023-04-09T04:53:36;25.20;33.40
20795;DHT22;28087;-33.874;151.240;2023-04-09T04:56:14;25.20;33.20
20795;DHT22;28087;-33.874;151.240;2023-04-09T04:59:00;25.00;33.50
20795;DHT22;28087;-33.874;151.240;2023-04-09T05:01:47;24.90;34.30
20795;DHT22;28087;-33.874;151.240;2023-04-09T05:04:22;24.60;33.70
20795;DHT22;28087;-33.874;151.240;2023-04-09T05:06:57;24.40;33.90
20795;DHT22;28087;-33.874;151.240;2023-04-09T05:09:34;24.50;33.80
20795;DHT22;28087;-33.874;151.240;2023-04-09T05:12:09;24.40;33.50
20795;DHT22;28087;-33.874;151.240;2023-04-09T05:14:44;24.30;33.60
20795;DHT22;28087;-33.874;151.240;2023-04-09T05:17:18;24.10;33.60
20795;DHT22;28087;-33.874;151.240;2023-04-09T05:19:54;24.00;34.10
20795;DHT22;28087;-33.874;151.240;2023-04-09T05:22:42;24.10;34.00
20795;DHT22;28087;-33.874;151.240;2023-04-09T05:25:19;24.00;34.40
20795;DHT22;28087;-33.874;151.240;2023-04-09T05:27:53;23.90;34.50
20795;DHT22;28087;-33.874;151.240;2023-04-09T05:30:29;23.70;34.30
20795;DHT22;28087;-33.874;151.240;2023-04-09T05:33:05;23.60;34.20
20795;DHT22;28087;-33.874;151.240;2023-04-09T05:35:40;23.50;34.30
20795;DHT22;28087;-33.874;151.240;2023-04-09T05:38:14;23.50;34.80
20795;DHT22;28087;-33.874;151.240;2023-04-09T05:40:58;23.30;34.80
20795;DHT22;28087;-33.874;151.240;2023-04-09T05:43:34;23.30;34.90
20795;DHT22;28087;-33.874;151.240;2023-04-09T05:46:08;23.40;35.20
20795;DHT22;28087;-33.874;151.240;2023-04-09T05:48:43;23.30;35.10
20795;DHT22;28087;-33.874;151.240;2023-04-09T05:51:18;23.20;35.20
20795;DHT22;28087;-33.874;151.240;2023-04-09T05:53:52;23.30;35.40
20795;DHT22;28087;-33.874;151.240;2023-04-09T05:56:36;23.30;35.40
20795;DHT22;28087;-33.874;151.240;2023-04-09T05:59:10;23.10;35.60
20795;DHT22;28087;-33.874;151.240;2023-04-09T06:01:47;23.10;35.50
20795;DHT22;28087;-33.874;151.240;2023-04-09T06:04:22;23.10;35.50
20795;DHT22;28087;-33.874;151.240;2023-04-09T06:06:56;23.10;35.10
20795;DHT22;28087;-33.874;151.240;2023-04-09T06:09:30;23.00;35.50
20795;DHT22;28087;-33.874;151.240;2023-04-09T06:12:06;22.80;35.30
20795;DHT22;28087;-33.874;151.240;2023-04-09T06:14:41;22.80;36.00
20795;DHT22;28087;-33.874;151.240;2023-04-09T06:17:15;22.80;35.80
20795;DHT22;28087;-33.874;151.240;2023-04-09T06:19:51;22.80;35.80
20795;DHT22;28087;-33.874;151.240;2023-04-09T06:22:25;22.80;36.00
20795;DHT22;28087;-33.874;151.240;2023-04-09T06:25:00;22.70;36.00
20795;DHT22;28087;-33.874;151.240;2023-04-09T06:27:36;22.60;36.00
20795;DHT22;28087;-33.874;151.240;2023-04-09T06:30:11;22.70;36.10
20795;DHT22;28087;-33.874;151.240;2023-04-09T06:32:45;22.60;36.00
20795;DHT22;28087;-33.874;151.240;2023-04-09T06:35:24;22.50;37.00
20795;DHT22;28087;-33.874;151.240;2023-04-09T06:37:58;22.50;36.30
20795;DHT22;28087;-33.874;151.240;2023-04-09T06:40:33;22.50;36.20
20795;DHT22;28087;-33.874;151.240;2023-04-09T06:43:09;22.50;35.90
20795;DHT22;28087;-33.874;151.240;2023-04-09T06:45:50;22.40;36.10
20795;DHT22;28087;-33.874;151.240;2023-04-09T06:48:24;22.60;36.40
20795;DHT22;28087;-33.874;151.240;2023-04-09T06:51:00;22.50;36.10
20795;DHT22;28087;-33.874;151.240;2023-04-09T06:53:34;22.50;36.60
20795;DHT22;28087;-33.874;151.240;2023-04-09T06:56:08;22.50;37.50
20795;DHT22;28087;-33.874;151.240;2023-04-09T06:58:44;22.50;36.40
20795;DHT22;28087;-33.874;151.240;2023-04-09T07:01:19;22.40;36.70
20795;DHT22;28087;-33.874;151.240;2023-04-09T07:03:53;22.40;36.50
20795;DHT22;28087;-33.874;151.240;2023-04-09T07:06:27;22.30;36.80
20795;DHT22;28087;-33.874;151.240;2023-04-09T07:09:02;22.20;37.00
20795;DHT22;28087;-33.874;151.240;2023-04-09T07:11:36;22.30;36.90
20795;DHT22;28087;-33.874;151.240;2023-04-09T07:14:13;22.30;36.90
20795;DHT22;28087;-33.874;151.240;2023-04-09T07:16:47;22.20;37.20
20795;DHT22;28087;-33.874;151.240;2023-04-09T07:19:22;21.90;36.80
20795;DHT22;28087;-33.874;151.240;2023-04-09T07:21:57;22.00;37.80
20795;DHT22;28087;-33.874;151.240;2023-04-09T07:24:31;21.90;37.70
20795;DHT22;28087;-33.874;151.240;2023-04-09T07:27:05;22.00;37.80
20795;DHT22;28087;-33.874;151.240;2023-04-09T07:29:45;21.90;37.60
20795;DHT22;28087;-33.874;151.240;2023-04-09T07:32:19;22.00;37.80
20795;DHT22;28087;-33.874;151.240;2023-04-09T07:34:54;22.00;38.40
20795;DHT22;28087;-33.874;151.240;2023-04-09T07:37:29;21.90;38.10
20795;DHT22;28087;-33.874;151.240;2023-04-09T07:40:04;22.00;38.10
20795;DHT22;28087;-33.874;151.240;2023-04-09T07:42:39;21.80;38.10
20795;DHT22;28087;-33.874;151.240;2023-04-09T07:45:14;21.80;38.70
20795;DHT22;28087;-33.874;151.240;2023-04-09T07:47:48;21.80;38.70
20795;DHT22;28087;-33.874;151.240;2023-04-09T07:50:22;21.80;38.30
20795;DHT22;28087;-33.874;151.240;2023-04-09T07:52:58;21.60;38.00
20795;DHT22;28087;-33.874;151.240;2023-04-09T07:55:32;21.70;38.50
20795;DHT22;28087;-33.874;151.240;2023-04-09T07:58:06;21.70;38.10
20795;DHT22;28087;-33.874;151.240;2023-04-09T08:00:42;21.60;38.60
20795;DHT22;28087;-33.874;151.240;2023-04-09T08:03:17;21.70;38.60
20795;DHT22;28087;-33.874;151.240;2023-04-09T08:05:55;21.70;38.60
20795;DHT22;28087;-33.874;151.240;2023-04-09T08:08:29;21.60;38.90
20795;DHT22;28087;-33.874;151.240;2023-04-09T08:11:03;21.50;38.70
20795;DHT22;28087;-33.874;151.240;2023-04-09T08:13:38;21.60;38.90
20795;DHT22;28087;-33.874;151.240;2023-04-09T08:16:14;21.60;38.90
20795;DHT22;28087;-33.874;151.240;2023-04-09T08:18:49;21.40;38.80
20795;DHT22;28087;-33.874;151.240;2023-04-09T08:21:23;21.50;39.30
20795;DHT22;28087;-33.874;151.240;2023-04-09T08:23:59;21.50;39.50
20795;DHT22;28087;-33.874;151.240;2023-04-09T08:26:35;21.30;38.90
20795;DHT22;28087;-33.874;151.240;2023-04-09T08:29:10;21.40;38.80
20795;DHT22;28087;-33.874;151.240;2023-04-09T08:31:46;21.30;38.90
20795;DHT22;28087;-33.874;151.240;2023-04-09T08:34:21;21.40;39.00
20795;DHT22;28087;-33.874;151.240;2023-04-09T08:36:55;21.40;38.90
20795;DHT22;28087;-33.874;151.240;2023-04-09T08:39:30;21.50;39.30
20795;DHT22;28087;-33.874;151.240;2023-04-09T08:42:06;21.30;39.10
20795;DHT22;28087;-33.874;151.240;2023-04-09T08:44:42;21.30;39.60
20795;DHT22;28087;-33.874;151.240;2023-04-09T08:47:18;21.20;39.30
20795;DHT22;28087;-33.874;151.240;2023-04-09T08:49:53;21.10;39.60
20795;DHT22;28087;-33.874;151.240;2023-04-09T08:52:30;21.00;39.60
20795;DHT22;28087;-33.874;151.240;2023-04-09T08:55:07;21.00;39.00
20795;DHT22;28087;-33.874;151.240;2023-04-09T08:57:41;21.10;39.30
20795;DHT22;28087;-33.874;151.240;2023-04-09T09:00:15;21.10;39.20
20795;DHT22;28087;-33.874;151.240;2023-04-09T09:03:03;21.10;39.30
20795;DHT22;28087;-33.874;151.240;2023-04-09T09:05:38;21.00;39.60
20795;DHT22;28087;-33.874;151.240;2023-04-09T09:08:22;21.00;39.50
20795;DHT22;28087;-33.874;151.240;2023-04-09T09:10:56;21.00;39.40
20795;DHT22;28087;-33.874;151.240;2023-04-09T09:13:30;21.10;39.80
20795;DHT22;28087;-33.874;151.240;2023-04-09T09:16:12;21.10;39.90
20795;DHT22;28087;-33.874;151.240;2023-04-09T09:18:48;20.90;39.70
20795;DHT22;28087;-33.874;151.240;2023-04-09T09:21:22;20.70;40.10
20795;DHT22;28087;-33.874;151.240;2023-04-09T09:23:57;20.80;40.10
20795;DHT22;28087;-33.874;151.240;2023-04-09T09:26:32;20.90;39.90
20795;DHT22;28087;-33.874;151.240;2023-04-09T09:29:10;20.70;40.10
20795;DHT22;28087;-33.874;151.240;2023-04-09T09:31:48;20.70;40.40
20795;DHT22;28087;-33.874;151.240;2023-04-09T09:34:24;20.90;40.30
20795;DHT22;28087;-33.874;151.240;2023-04-09T09:36:59;20.90;40.20
20795;DHT22;28087;-33.874;151.240;2023-04-09T09:39:42;20.80;40.20
20795;DHT22;28087;-33.874;151.240;2023-04-09T09:42:18;20.90;40.30
20795;DHT22;28087;-33.874;151.240;2023-04-09T09:44:52;20.80;40.60
20795;DHT22;28087;-33.874;151.240;2023-04-09T09:47:27;20.80;40.50
20795;DHT22;28087;-33.874;151.240;2023-04-09T09:50:04;20.60;40.50
20795;DHT22;28087;-33.874;151.240;2023-04-09T09:52:38;20.70;41.10
20795;DHT22;28087;-33.874;151.240;2023-04-09T09:55:13;20.70;41.00
20795;DHT22;28087;-33.874;151.240;2023-04-09T09:57:50;20.70;41.20
20795;DHT22;28087;-33.874;151.240;2023-04-09T10:00:25;20.60;40.60
20795;DHT22;28087;-33.874;151.240;2023-04-09T10:03:02;20.50;40.90
20795;DHT22;28087;-33.874;151.240;2023-04-09T10:05:41;20.50;41.10
20795;DHT22;28087;-33.874;151.240;2023-04-09T10:08:16;20.30;41.20
20795;DHT22;28087;-33.874;151.240;2023-04-09T10:10:50;20.30;41.40
20795;DHT22;28087;-33.874;151.240;2023-04-09T10:13:28;20.30;41.40
20795;DHT22;28087;-33.874;151.240;2023-04-09T10:16:02;20.20;41.70
20795;DHT22;28087;-33.874;151.240;2023-04-09T10:18:38;20.20;41.60
20795;DHT22;28087;-33.874;151.240;2023-04-09T10:21:16;20.20;41.60
20795;DHT22;28087;-33.874;151.240;2023-04-09T10:23:52;20.10;41.80
20795;DHT22;28087;-33.874;151.240;2023-04-09T10:26:26;20.30;41.80
20795;DHT22;28087;-33.874;151.240;2023-04-09T10:29:05;20.10;41.90
20795;DHT22;28087;-33.874;151.240;2023-04-09T10:31:46;20.30;41.90
20795;DHT22;28087;-33.874;151.240;2023-04-09T10:34:20;20.00;42.00
20795;DHT22;28087;-33.874;151.240;2023-04-09T10:36:57;20.00;42.20
20795;DHT22;28087;-33.874;151.240;2023-04-09T10:39:32;20.00;42.20
20795;DHT22;28087;-33.874;151.240;2023-04-09T10:42:07;20.10;42.10
20795;DHT22;28087;-33.874;151.240;2023-04-09T10:44:41;20.00;42.50
20795;DHT22;28087;-33.874;151.240;2023-04-09T10:47:29;20.00;42.40
20795;DHT22;28087;-33.874;151.240;2023-04-09T10:50:15;20.00;42.30
20795;DHT22;28087;-33.874;151.240;2023-04-09T10:52:53;20.00;42.70
20795;DHT22;28087;-33.874;151.240;2023-04-09T10:55:31;20.00;42.50
20795;DHT22;28087;-33.874;151.240;2023-04-09T10:58:06;19.90;42.10
20795;DHT22;28087;-33.874;151.240;2023-04-09T11:00:43;20.00;42.40
20795;DHT22;28087;-33.874;151.240;2023-04-09T11:03:21;20.00;42.90
20795;DHT22;28087;-33.874;151.240;2023-04-09T11:06:00;19.90;43.10
20795;DHT22;28087;-33.874;151.240;2023-04-09T11:08:37;19.90;43.10
20795;DHT22;28087;-33.874;151.240;2023-04-09T11:11:13;19.80;42.90
20795;DHT22;28087;-33.874;151.240;2023-04-09T11:13:46;19.90;42.90
20795;DHT22;28087;-33.874;151.240;2023-04-09T11:16:22;19.80;43.00
20795;DHT22;28087;-33.874;151.240;2023-04-09T11:18:57;19.90;43.20
20795;DHT22;28087;-33.874;151.240;2023-04-09T11:21:32;19.90;42.90
20795;DHT22;28087;-33.874;151.240;2023-04-09T11:24:10;19.80;43.20
20795;DHT22;28087;-33.874;151.240;2023-04-09T11:26:44;19.70;43.40
20795;DHT22;28087;-33.874;151.240;2023-04-09T11:29:19;19.60;43.50
20795;DHT22;28087;-33.874;151.240;2023-04-09T11:31:59;19.60;43.50
20795;DHT22;28087;-33.874;151.240;2023-04-09T11:34:35;19.50;43.60
20795;DHT22;28087;-33.874;151.240;2023-04-09T11:37:13;19.40;44.00
20795;DHT22;28087;-33.874;151.240;2023-04-09T11:39:50;19.50;43.90
20795;DHT22;28087;-33.874;151.240;2023-04-09T11:42:30;19.50;43.50
20795;DHT22;28087;-33.874;151.240;2023-04-09T11:45:04;19.60;43.60
20795;DHT22;28087;-33.874;151.240;2023-04-09T11:47:39;19.50;43.90
20795;DHT22;28087;-33.874;151.240;2023-04-09T11:50:13;19.40;44.00
20795;DHT22;28087;-33.874;151.240;2023-04-09T11:52:49;19.40;44.50
20795;DHT22;28087;-33.874;151.240;2023-04-09T11:55:25;19.40;44.20
20795;DHT22;28087;-33.874;151.240;2023-04-09T11:58:00;19.50;44.70
20795;DHT22;28087;-33.874;151.240;2023-04-09T12:00:34;19.40;44.30
20795;DHT22;28087;-33.874;151.240;2023-04-09T12:03:09;19.30;44.20
20795;DHT22;28087;-33.874;151.240;2023-04-09T12:05:46;19.30;44.40
20795;DHT22;28087;-33.874;151.240;2023-04-09T12:08:22;19.30;44.30
20795;DHT22;28087;-33.874;151.240;2023-04-09T12:11:04;19.30;44.30
20795;DHT22;28087;-33.874;151.240;2023-04-09T12:13:41;19.30;44.60
20795;DHT22;28087;-33.874;151.240;2023-04-09T12:16:18;19.20;44.60
20795;DHT22;28087;-33.874;151.240;2023-04-09T12:18:54;19.20;44.80
20795;DHT22;28087;-33.874;151.240;2023-04-09T12:21:44;19.20;45.00
20795;DHT22;28087;-33.874;151.240;2023-04-09T12:24:20;19.10;44.90
20795;DHT22;28087;-33.874;151.240;2023-04-09T12:26:56;19.10;45.50
20795;DHT22;28087;-33.874;151.240;2023-04-09T12:29:30;19.10;45.50
20795;DHT22;28087;-33.874;151.240;2023-04-09T12:32:04;19.20;45.00
20795;DHT22;28087;-33.874;151.240;2023-04-09T12:34:39;19.20;45.30
20795;DHT22;28087;-33.874;151.240;2023-04-09T12:37:13;19.20;45.10
20795;DHT22;28087;-33.874;151.240;2023-04-09T12:39:47;19.30;45.40
20795;DHT22;28087;-33.874;151.240;2023-04-09T12:42:23;19.30;45.60
20795;DHT22;28087;-33.874;151.240;2023-04-09T12:45:00;19.30;45.50
20795;DHT22;28087;-33.874;151.240;2023-04-09T12:47:34;19.20;45.30
20795;DHT22;28087;-33.874;151.240;2023-04-09T12:50:10;19.10;45.30
20795;DHT22;28087;-33.874;151.240;2023-04-09T12:52:44;19.00;45.70
20795;DHT22;28087;-33.874;151.240;2023-04-09T12:55:19;19.10;46.20
20795;DHT22;28087;-33.874;151.240;2023-04-09T12:57:55;19.00;46.80
20795;DHT22;28087;-33.874;151.240;2023-04-09T13:00:29;19.10;45.80
20795;DHT22;28087;-33.874;151.240;2023-04-09T13:03:03;19.00;45.90
20795;DHT22;28087;-33.874;151.240;2023-04-09T13:05:39;19.10;46.60
20795;DHT22;28087;-33.874;151.240;2023-04-09T13:08:13;19.10;46.70
20795;DHT22;28087;-33.874;151.240;2023-04-09T13:10:47;19.10;46.70
20795;DHT22;28087;-33.874;151.240;2023-04-09T13:13:23;19.10;45.80
20795;DHT22;28087;-33.874;151.240;2023-04-09T13:15:58;19.00;46.40
20795;DHT22;28087;-33.874;151.240;2023-04-09T13:18:32;19.00;46.20
20795;DHT22;28087;-33.874;151.240;2023-04-09T13:21:08;19.00;46.40
20795;DHT22;28087;-33.874;151.240;2023-04-09T13:23:42;19.00;46.30
20795;DHT22;28087;-33.874;151.240;2023-04-09T13:26:17;19.00;45.90
20795;DHT22;28087;-33.874;151.240;2023-04-09T13:28:53;18.90;46.40
20795;DHT22;28087;-33.874;151.240;2023-04-09T13:31:27;18.90;46.40
20795;DHT22;28087;-33.874;151.240;2023-04-09T13:34:02;18.80;46.50
20795;DHT22;28087;-33.874;151.240;2023-04-09T13:36:38;18.90;46.70
20795;DHT22;28087;-33.874;151.240;2023-04-09T13:39:12;18.80;46.30
20795;DHT22;28087;-33.874;151.240;2023-04-09T13:41:46;18.90;46.70
20795;DHT22;28087;-33.874;151.240;2023-04-09T13:44:23;18.90;46.80
20795;DHT22;28087;-33.874;151.240;2023-04-09T13:46:57;18.80;47.10
20795;DHT22;28087;-33.874;151.240;2023-04-09T13:49:32;18.80;47.00
20795;DHT22;28087;-33.874;151.240;2023-04-09T13:52:07;18.70;46.70
20795;DHT22;28087;-33.874;151.240;2023-04-09T13:54:41;18.70;47.00
20795;DHT22;28087;-33.874;151.240;2023-04-09T13:57:16;18.70;47.10
20795;DHT22;28087;-33.874;151.240;2023-04-09T23:54:12;22.20;41.10
20795;DHT22;28087;-33.874;151.240;2023-04-09T23:56:46;22.30;40.10
20795;DHT22;28087;-33.874;151.240;2023-04-09T23:59:20;22.30;40.40
